Terminal Aerodrome Forecast
Issued by NWS Tallahassee, FL

Home | Current Version | Previous Version | Text Only | Print | Product List | Glossary On
Versions: 1 2 3 4 5 6 7 8 9 10 11 12 13 14
493
FTUS42 KTAE 090902 AAA
TAFTLH
TAF AMD
KTLH 090902Z 0909/1006 28008KT P6SM SKC
     FM091500 28016G26KT P6SM FEW250
     FM092300 29010KT P6SM SKC=

USA.gov is the U.S. government's official web portal to all federal, state and local government web resources and services.